sensor_id;sensor_type;location;lat;lon;timestamp;pressure;altitude;pressure_sealevel;temperature;humidity
6413;BME280;3239;48.714;9.472;2023-02-13T00:00:20;100381.59;;;3.77;100.00
6413;BME280;3239;48.714;9.472;2023-02-13T00:02:46;100385.22;;;3.86;100.00
6413;BME280;3239;48.714;9.472;2023-02-13T00:05:12;100381.00;;;3.85;100.00
6413;BME280;3239;48.714;9.472;2023-02-13T00:07:38;100378.97;;;3.89;100.00
6413;BME280;3239;48.714;9.472;2023-02-13T00:10:05;100376.84;;;3.81;100.00
6413;BME280;3239;48.714;9.472;2023-02-13T00:12:32;100371.44;;;3.81;100.00
6413;BME280;3239;48.714;9.472;2023-02-13T00:14:57;100370.94;;;3.86;100.00
6413;BME280;3239;48.714;9.472;2023-02-13T00:17:25;100373.47;;;3.77;100.00
6413;BME280;3239;48.714;9.472;2023-02-13T00:19:51;100372.53;;;3.83;100.00
6413;BME280;3239;48.714;9.472;2023-02-13T00:22:17;100364.31;;;3.87;100.00
6413;BME280;3239;48.714;9.472;2023-02-13T00:24:43;100365.34;;;3.77;100.00
6413;BME280;3239;48.714;9.472;2023-02-13T00:27:08;100359.91;;;3.77;100.00
6413;BME280;3239;48.714;9.472;2023-02-13T00:29:34;100365.41;;;3.89;100.00
6413;BME280;3239;48.714;9.472;2023-02-13T00:32:00;100365.91;;;3.84;100.00
6413;BME280;3239;48.714;9.472;2023-02-13T00:34:26;100357.97;;;3.77;100.00
6413;BME280;3239;48.714;9.472;2023-02-13T00:36:52;100361.34;;;3.81;100.00
6413;BME280;3239;48.714;9.472;2023-02-13T00:39:18;100357.69;;;3.88;100.00
6413;BME280;3239;48.714;9.472;2023-02-13T00:41:44;100361.34;;;3.81;100.00
6413;BME280;3239;48.714;9.472;2023-02-13T00:44:10;100360.59;;;3.81;100.00
6413;BME280;3239;48.714;9.472;2023-02-13T00:46:36;100357.19;;;3.77;100.00
6413;BME280;3239;48.714;9.472;2023-02-13T00:49:03;100352.56;;;3.77;100.00
6413;BME280;3239;48.714;9.472;2023-02-13T00:51:29;100352.56;;;3.77;100.00
6413;BME280;3239;48.714;9.472;2023-02-13T00:53:55;100358.81;;;3.74;100.00
6413;BME280;3239;48.714;9.472;2023-02-13T00:56:21;100352.28;;;3.72;100.00
6413;BME280;3239;48.714;9.472;2023-02-13T00:58:47;100355.25;;;3.77;100.00
6413;BME280;3239;48.714;9.472;2023-02-13T01:01:13;100364.47;;;3.80;100.00
6413;BME280;3239;48.714;9.472;2023-02-13T01:03:39;100357.00;;;3.84;100.00
6413;BME280;3239;48.714;9.472;2023-02-13T01:06:06;100359.63;;;3.87;100.00
6413;BME280;3239;48.714;9.472;2023-02-13T01:08:32;100354.66;;;3.86;100.00
6413;BME280;3239;48.714;9.472;2023-02-13T01:10:58;100356.44;;;3.76;100.00
6413;BME280;3239;48.714;9.472;2023-02-13T01:13:25;100359.81;;;3.80;100.00
6413;BME280;3239;48.714;9.472;2023-02-13T01:15:51;100355.25;;;3.77;100.00
6413;BME280;3239;48.714;9.472;2023-02-13T01:18:19;100360.69;;;3.77;100.00
6413;BME280;3239;48.714;9.472;2023-02-13T01:20:55;100355.25;;;3.77;100.00
6413;BME280;3239;48.714;9.472;2023-02-13T01:23:21;100356.94;;;3.71;100.00
6413;BME280;3239;48.714;9.472;2023-02-13T01:25:47;100350.59;;;3.78;100.00
6413;BME280;3239;48.714;9.472;2023-02-13T01:28:13;100353.47;;;3.87;100.00
6413;BME280;3239;48.714;9.472;2023-02-13T01:30:39;100337.97;;;3.71;100.00
6413;BME280;3239;48.714;9.472;2023-02-13T01:33:04;100351.59;;;3.68;100.00
6413;BME280;3239;48.714;9.472;2023-02-13T01:35:30;100348.81;;;3.55;100.00
6413;BME280;3239;48.714;9.472;2023-02-13T01:37:56;100344.75;;;3.47;100.00
6413;BME280;3239;48.714;9.472;2023-02-13T01:40:22;100339.03;;;3.10;100.00
6413;BME280;3239;48.714;9.472;2023-02-13T01:42:47;100340.06;;;3.16;100.00
6413;BME280;3239;48.714;9.472;2023-02-13T01:45:28;100332.03;;;2.77;100.00
6413;BME280;3239;48.714;9.472;2023-02-13T01:48:02;100326.03;;;2.30;100.00
6413;BME280;3239;48.714;9.472;2023-02-13T01:53:29;100330.81;;;2.23;100.00
6413;BME280;3239;48.714;9.472;2023-02-13T01:58:59;100332.34;;;2.24;100.00
6413;BME280;3239;48.714;9.472;2023-02-13T02:01:26;100334.72;;;2.22;100.00
6413;BME280;3239;48.714;9.472;2023-02-13T02:06:37;100343.00;;;2.11;100.00
6413;BME280;3239;48.714;9.472;2023-02-13T02:09:11;100333.84;;;2.05;100.00
6413;BME280;3239;48.714;9.472;2023-02-13T02:11:53;100341.63;;;2.03;100.00
6413;BME280;3239;48.714;9.472;2023-02-13T02:14:21;100334.06;;;1.72;100.00
6413;BME280;3239;48.714;9.472;2023-02-13T02:16:47;100333.13;;;1.59;100.00
6413;BME280;3239;48.714;9.472;2023-02-13T02:22:18;100323.94;;;1.30;100.00
6413;BME280;3239;48.714;9.472;2023-02-13T02:28:24;100308.22;;;0.72;100.00
6413;BME280;3239;48.714;9.472;2023-02-13T02:34:08;100307.31;;;0.52;100.00
6413;BME280;3239;48.714;9.472;2023-02-13T02:40:29;100313.53;;;0.49;100.00
6413;BME280;3239;48.714;9.472;2023-02-13T02:43:51;100314.25;;;0.53;100.00
6413;BME280;3239;48.714;9.472;2023-02-13T02:46:40;100306.38;;;0.35;100.00
6413;BME280;3239;48.714;9.472;2023-02-13T02:49:26;100315.94;;;0.40;100.00
6413;BME280;3239;48.714;9.472;2023-02-13T02:52:18;100313.63;;;0.38;100.00
6413;BME280;3239;48.714;9.472;2023-02-13T02:54:51;100318.25;;;0.41;100.00
6413;BME280;3239;48.714;9.472;2023-02-13T02:57:40;100317.78;;;0.46;100.00
6413;BME280;3239;48.714;9.472;2023-02-13T03:00:27;100320.59;;;0.36;100.00
6413;BME280;3239;48.714;9.472;2023-02-13T03:03:21;100316.75;;;0.37;100.00
6413;BME280;3239;48.714;9.472;2023-02-13T03:06:57;100321.28;;;0.13;100.00
6413;BME280;3239;48.714;9.472;2023-02-13T03:09:40;100323.91;;;0.17;100.00
6413;BME280;3239;48.714;9.472;2023-02-13T03:12:35;100332.97;;;0.00;100.00
6413;BME280;3239;48.714;9.472;2023-02-13T03:15:23;100331.34;;;0.06;100.00
6413;BME280;3239;48.714;9.472;2023-02-13T03:17:50;100337.75;;;0.19;100.00
6413;BME280;3239;48.714;9.472;2023-02-13T03:21:09;100339.31;;;0.16;100.00
6413;BME280;3239;48.714;9.472;2023-02-13T03:24:13;100336.22;;;0.18;100.00
6413;BME280;3239;48.714;9.472;2023-02-13T03:29:52;100341.78;;;0.00;100.00
6413;BME280;3239;48.714;9.472;2023-02-13T03:33:11;100351.44;;;-0.02;100.00
6413;BME280;3239;48.714;9.472;2023-02-13T03:41:29;100355.34;;;-0.07;100.00
6413;BME280;3239;48.714;9.472;2023-02-13T03:47:00;100363.44;;;-0.07;100.00
6413;BME280;3239;48.714;9.472;2023-02-13T03:49:42;100366.13;;;-0.07;100.00
6413;BME280;3239;48.714;9.472;2023-02-13T03:53:00;100362.34;;;-0.13;100.00
6413;BME280;3239;48.714;9.472;2023-02-13T03:55:34;100371.16;;;-0.12;100.00
6413;BME280;3239;48.714;9.472;2023-02-13T03:58:34;100375.06;;;-0.17;100.00
6413;BME280;3239;48.714;9.472;2023-02-13T04:01:25;100381.56;;;-0.11;100.00
6413;BME280;3239;48.714;9.472;2023-02-13T04:07:20;100385.75;;;-0.10;100.00
6413;BME280;3239;48.714;9.472;2023-02-13T04:10:06;100394.66;;;-0.13;100.00
6413;BME280;3239;48.714;9.472;2023-02-13T04:15:49;100399.31;;;-0.17;100.00
6413;BME280;3239;48.714;9.472;2023-02-13T04:18:27;100390.84;;;-0.15;100.00
6413;BME280;3239;48.714;9.472;2023-02-13T04:20:54;100396.56;;;-0.13;100.00
6413;BME280;3239;48.714;9.472;2023-02-13T04:23:20;100390.84;;;-0.15;100.00
6413;BME280;3239;48.714;9.472;2023-02-13T04:25:49;100394.75;;;-0.23;100.00
6413;BME280;3239;48.714;9.472;2023-02-13T04:28:16;100392.50;;;-0.32;100.00
6413;BME280;3239;48.714;9.472;2023-02-13T04:30:43;100392.06;;;-0.27;100.00
6413;BME280;3239;48.714;9.472;2023-02-13T04:33:09;100400.19;;;-0.30;100.00
6413;BME280;3239;48.714;9.472;2023-02-13T04:35:34;100395.63;;;-0.37;100.00
6413;BME280;3239;48.714;9.472;2023-02-13T04:38:01;100397.19;;;-0.39;100.00
6413;BME280;3239;48.714;9.472;2023-02-13T04:40:27;100394.56;;;-0.53;100.00
6413;BME280;3239;48.714;9.472;2023-02-13T04:42:52;100391.63;;;-0.65;100.00
6413;BME280;3239;48.714;9.472;2023-02-13T04:45:18;100393.59;;;-0.76;100.00
6413;BME280;3239;48.714;9.472;2023-02-13T04:47:50;100388.91;;;-0.69;100.00
6413;BME280;3239;48.714;9.472;2023-02-13T04:50:17;100392.00;;;-0.67;100.00
6413;BME280;3239;48.714;9.472;2023-02-13T04:52:42;100393.16;;;-0.72;100.00
6413;BME280;3239;48.714;9.472;2023-02-13T04:55:08;100387.41;;;-0.73;100.00
6413;BME280;3239;48.714;9.472;2023-02-13T04:57:34;100391.31;;;-0.78;100.00
6413;BME280;3239;48.714;9.472;2023-02-13T05:00:00;100397.78;;;-0.72;100.00
6413;BME280;3239;48.714;9.472;2023-02-13T05:02:26;100396.28;;;-0.80;100.00
6413;BME280;3239;48.714;9.472;2023-02-13T05:04:51;100395.09;;;-0.72;100.00
6413;BME280;3239;48.714;9.472;2023-02-13T05:07:17;100396.28;;;-0.73;100.00
6413;BME280;3239;48.714;9.472;2023-02-13T05:09:43;100388.66;;;-0.88;100.00
6413;BME280;3239;48.714;9.472;2023-02-13T05:12:09;100398.38;;;-1.08;100.00
6413;BME280;3239;48.714;9.472;2023-02-13T05:14:34;100395.22;;;-0.93;100.00
6413;BME280;3239;48.714;9.472;2023-02-13T05:17:00;100397.91;;;-0.93;100.00
6413;BME280;3239;48.714;9.472;2023-02-13T05:19:26;100399.50;;;-1.06;100.00
6413;BME280;3239;48.714;9.472;2023-02-13T05:21:51;100391.47;;;-1.13;100.00
6413;BME280;3239;48.714;9.472;2023-02-13T05:24:36;100400.66;;;-1.00;100.00
6413;BME280;3239;48.714;9.472;2023-02-13T05:27:01;100400.22;;;-0.91;100.00
6413;BME280;3239;48.714;9.472;2023-02-13T05:29:27;100399.16;;;-1.11;100.00
6413;BME280;3239;48.714;9.472;2023-02-13T05:31:55;100403.44;;;-1.24;100.00
6413;BME280;3239;48.714;9.472;2023-02-13T05:34:25;100408.81;;;-1.21;100.00
6413;BME280;3239;48.714;9.472;2023-02-13T05:36:51;100410.31;;;-1.13;100.00
6413;BME280;3239;48.714;9.472;2023-02-13T05:39:17;100412.56;;;-1.04;100.00
6413;BME280;3239;48.714;9.472;2023-02-13T05:41:44;100402.97;;;-1.05;100.00
6413;BME280;3239;48.714;9.472;2023-02-13T05:44:10;100396.47;;;-1.11;100.00
6413;BME280;3239;48.714;9.472;2023-02-13T05:46:38;100397.31;;;-1.32;100.00
6413;BME280;3239;48.714;9.472;2023-02-13T05:49:05;100393.88;;;-1.32;100.00
6413;BME280;3239;48.714;9.472;2023-02-13T05:51:31;100397.66;;;-1.19;100.00
6413;BME280;3239;48.714;9.472;2023-02-13T05:53:57;100398.81;;;-1.20;100.00
6413;BME280;3239;48.714;9.472;2023-02-13T05:56:23;100393.84;;;-1.18;100.00
6413;BME280;3239;48.714;9.472;2023-02-13T05:58:53;100403.03;;;-1.16;100.00
6413;BME280;3239;48.714;9.472;2023-02-13T06:01:21;100401.88;;;-1.15;100.00
6413;BME280;3239;48.714;9.472;2023-02-13T06:03:47;100394.59;;;-1.21;100.00
6413;BME280;3239;48.714;9.472;2023-02-13T06:06:13;100396.50;;;-1.15;100.00
6413;BME280;3239;48.714;9.472;2023-02-13T06:08:39;100393.78;;;-1.11;100.00
6413;BME280;3239;48.714;9.472;2023-02-13T06:11:05;100394.19;;;-1.16;100.00
6413;BME280;3239;48.714;9.472;2023-02-13T06:13:31;100394.19;;;-1.16;100.00
6413;BME280;3239;48.714;9.472;2023-02-13T06:15:56;100396.13;;;-1.20;100.00
6413;BME280;3239;48.714;9.472;2023-02-13T06:18:22;100393.84;;;-1.25;100.00
6413;BME280;3239;48.714;9.472;2023-02-13T06:20:48;100390.78;;;-1.27;100.00
6413;BME280;3239;48.714;9.472;2023-02-13T06:23:15;100398.06;;;-1.28;100.00
6413;BME280;3239;48.714;9.472;2023-02-13T06:25:40;100403.84;;;-1.22;100.00
6413;BME280;3239;48.714;9.472;2023-02-13T06:28:06;100396.94;;;-1.23;100.00
6413;BME280;3239;48.714;9.472;2023-02-13T06:30:33;100398.84;;;-1.27;100.00
6413;BME280;3239;48.714;9.472;2023-02-13T06:32:58;100402.28;;;-1.27;100.00
6413;BME280;3239;48.714;9.472;2023-02-13T07:00:03;100411.00;;;-0.98;100.00
6413;BME280;3239;48.714;9.472;2023-02-13T07:02:32;100422.09;;;-0.86;100.00
6413;BME280;3239;48.714;9.472;2023-02-13T07:04:57;100420.44;;;-0.66;100.00
6413;BME280;3239;48.714;9.472;2023-02-13T07:07:26;100430.28;;;-0.42;100.00
6413;BME280;3239;48.714;9.472;2023-02-13T07:09:52;100430.19;;;-0.28;100.00
6413;BME280;3239;48.714;9.472;2023-02-13T07:12:18;100434.22;;;-0.03;100.00
6413;BME280;3239;48.714;9.472;2023-02-13T07:14:44;100433.34;;;0.11;100.00
6413;BME280;3239;48.714;9.472;2023-02-13T07:17:09;100436.09;;;0.41;100.00
6413;BME280;3239;48.714;9.472;2023-02-13T07:19:35;100429.75;;;0.21;100.00
6413;BME280;3239;48.714;9.472;2023-02-13T07:22:01;100427.41;;;0.26;100.00
6413;BME280;3239;48.714;9.472;2023-02-13T07:24:27;100430.75;;;0.74;100.00
6413;BME280;3239;48.714;9.472;2023-02-13T07:26:53;100424.44;;;0.84;100.00
6413;BME280;3239;48.714;9.472;2023-02-13T07:29:18;100424.91;;;1.09;100.00
6413;BME280;3239;48.714;9.472;2023-02-13T07:31:44;100418.22;;;1.70;100.00
6413;BME280;3239;48.714;9.472;2023-02-13T07:34:10;100408.31;;;1.87;100.00
6413;BME280;3239;48.714;9.472;2023-02-13T07:36:36;100391.44;;;2.02;100.00
6413;BME280;3239;48.714;9.472;2023-02-13T07:39:02;100376.56;;;1.45;100.00
6413;BME280;3239;48.714;9.472;2023-02-13T07:41:28;100357.97;;;1.24;100.00
6413;BME280;3239;48.714;9.472;2023-02-13T07:43:54;100352.78;;;1.10;100.00
6413;BME280;3239;48.714;9.472;2023-02-13T07:46:20;100351.72;;;1.30;100.00
6413;BME280;3239;48.714;9.472;2023-02-13T07:48:46;100347.66;;;0.92;100.00
6413;BME280;3239;48.714;9.472;2023-02-13T07:51:12;100339.28;;;0.83;100.00
6413;BME280;3239;48.714;9.472;2023-02-13T07:53:38;100337.41;;;0.50;100.00
6413;BME280;3239;48.714;9.472;2023-02-13T07:56:08;100340.19;;;1.00;100.00
6413;BME280;3239;48.714;9.472;2023-02-13T07:58:36;100339.34;;;1.33;100.00
6413;BME280;3239;48.714;9.472;2023-02-13T08:01:07;100344.63;;;1.40;100.00
6413;BME280;3239;48.714;9.472;2023-02-13T08:03:34;100330.38;;;1.62;100.00
6413;BME280;3239;48.714;9.472;2023-02-13T08:06:00;100326.09;;;1.65;100.00
6413;BME280;3239;48.714;9.472;2023-02-13T08:08:26;100322.31;;;1.59;100.00
6413;BME280;3239;48.714;9.472;2023-02-13T08:10:52;100322.53;;;1.91;100.00
6413;BME280;3239;48.714;9.472;2023-02-13T08:13:37;100317.53;;;1.89;100.00
6413;BME280;3239;48.714;9.472;2023-02-13T08:16:03;100314.31;;;2.17;100.00
6413;BME280;3239;48.714;9.472;2023-02-13T08:18:29;100310.41;;;1.99;100.00
6413;BME280;3239;48.714;9.472;2023-02-13T08:20:55;100300.78;;;1.98;100.00
6413;BME280;3239;48.714;9.472;2023-02-13T08:23:21;100290.13;;;2.10;100.00
6413;BME280;3239;48.714;9.472;2023-02-13T08:25:47;100296.78;;;2.06;100.00
6413;BME280;3239;48.714;9.472;2023-02-13T08:28:15;100301.44;;;2.80;100.00
6413;BME280;3239;48.714;9.472;2023-02-13T08:30:41;100284.25;;;2.86;100.00
6413;BME280;3239;48.714;9.472;2023-02-13T08:33:07;100285.81;;;2.68;100.00
6413;BME280;3239;48.714;9.472;2023-02-13T08:35:33;100280.75;;;3.05;100.00
6413;BME280;3239;48.714;9.472;2023-02-13T08:38:03;100274.31;;;3.47;100.00
6413;BME280;3239;48.714;9.472;2023-02-13T08:40:31;100269.19;;;2.85;100.00
6413;BME280;3239;48.714;9.472;2023-02-13T08:43:02;100263.13;;;3.29;100.00
6413;BME280;3239;48.714;9.472;2023-02-13T08:45:30;100262.56;;;3.22;100.00
6413;BME280;3239;48.714;9.472;2023-02-13T08:47:59;100261.59;;;4.17;100.00
6413;BME280;3239;48.714;9.472;2023-02-13T08:50:26;100251.88;;;4.04;100.00
6413;BME280;3239;48.714;9.472;2023-02-13T08:52:53;100237.19;;;3.89;100.00
6413;BME280;3239;48.714;9.472;2023-02-13T08:55:19;100241.94;;;3.85;100.00
6413;BME280;3239;48.714;9.472;2023-02-13T08:57:45;100246.81;;;4.84;100.00
6413;BME280;3239;48.714;9.472;2023-02-13T09:00:11;100230.47;;;4.34;100.00
6413;BME280;3239;48.714;9.472;2023-02-13T09:02:38;100229.63;;;3.96;100.00
6413;BME280;3239;48.714;9.472;2023-02-13T09:05:04;100237.13;;;5.55;100.00
6413;BME280;3239;48.714;9.472;2023-02-13T09:07:30;100234.88;;;5.41;100.00
6413;BME280;3239;48.714;9.472;2023-02-13T09:09:56;100219.31;;;6.40;100.00
6413;BME280;3239;48.714;9.472;2023-02-13T09:12:22;100205.25;;;6.41;100.00
6413;BME280;3239;48.714;9.472;2023-02-13T09:14:48;100202.56;;;6.20;100.00
6413;BME280;3239;48.714;9.472;2023-02-13T09:17:13;100201.50;;;6.48;100.00
6413;BME280;3239;48.714;9.472;2023-02-13T09:19:43;100189.16;;;6.25;100.00
6413;BME280;3239;48.714;9.472;2023-02-13T09:22:10;100195.13;;;6.81;100.00
6413;BME280;3239;48.714;9.472;2023-02-13T09:24:35;100183.81;;;7.01;100.00
6413;BME280;3239;48.714;9.472;2023-02-13T09:27:04;100189.72;;;6.20;100.00
6413;BME280;3239;48.714;9.472;2023-02-13T09:29:29;100185.34;;;6.53;100.00
6413;BME280;3239;48.714;9.472;2023-02-13T09:31:58;100196.91;;;6.36;100.00
6413;BME280;3239;48.714;9.472;2023-02-13T09:34:25;100197.59;;;6.58;100.00
6413;BME280;3239;48.714;9.472;2023-02-13T09:36:52;100201.78;;;6.19;100.00
6413;BME280;3239;48.714;9.472;2023-02-13T09:39:19;100199.59;;;6.57;100.00
6413;BME280;3239;48.714;9.472;2023-02-13T09:41:48;100198.66;;;7.00;100.00
6413;BME280;3239;48.714;9.472;2023-02-13T09:44:37;100199.88;;;6.99;100.00
6413;BME280;3239;48.714;9.472;2023-02-13T09:47:31;100193.41;;;7.77;100.00
6413;BME280;3239;48.714;9.472;2023-02-13T09:50:25;100189.38;;;6.88;100.00
6413;BME280;3239;48.714;9.472;2023-02-13T09:52:55;100193.06;;;7.03;100.00
6413;BME280;3239;48.714;9.472;2023-02-13T09:55:29;100188.09;;;7.11;100.00
6413;BME280;3239;48.714;9.472;2023-02-13T09:58:08;100197.66;;;7.15;100.00
6413;BME280;3239;48.714;9.472;2023-02-13T10:00:51;100190.81;;;8.10;100.00
6413;BME280;3239;48.714;9.472;2023-02-13T10:03:52;100183.06;;;8.08;100.00
6413;BME280;3239;48.714;9.472;2023-02-13T10:06:32;100182.75;;;8.24;100.00
6413;BME280;3239;48.714;9.472;2023-02-13T10:09:20;100188.16;;;8.84;100.00
6413;BME280;3239;48.714;9.472;2023-02-13T10:12:14;100178.53;;;10.11;100.00
6413;BME280;3239;48.714;9.472;2023-02-13T10:17:43;100163.91;;;8.35;100.00
6413;BME280;3239;48.714;9.472;2023-02-13T10:20:38;100170.91;;;9.25;100.00
6413;BME280;3239;48.714;9.472;2023-02-13T10:23:34;100165.09;;;11.11;100.00
6413;BME280;3239;48.714;9.472;2023-02-13T10:26:08;100162.47;;;10.04;100.00
6413;BME280;3239;48.714;9.472;2023-02-13T10:28:56;100162.66;;;10.15;100.00
6413;BME280;3239;48.714;9.472;2023-02-13T10:31:45;100164.97;;;9.79;100.00
6413;BME280;3239;48.714;9.472;2023-02-13T10:34:17;100155.84;;;10.40;100.00
6413;BME280;3239;48.714;9.472;2023-02-13T10:36:46;100157.63;;;9.85;100.00
6413;BME280;3239;48.714;9.472;2023-02-13T10:39:28;100160.47;;;9.90;100.00
6413;BME280;3239;48.714;9.472;2023-02-13T10:45:02;100152.19;;;10.14;100.00
6413;BME280;3239;48.714;9.472;2023-02-13T10:51:29;100133.38;;;10.07;100.00
6413;BME280;3239;48.714;9.472;2023-02-13T11:00:48;100128.72;;;10.42;100.00
6413;BME280;3239;48.714;9.472;2023-02-13T11:03:24;100124.56;;;11.41;100.00
6413;BME280;3239;48.714;9.472;2023-02-13T11:05:52;100124.50;;;10.95;100.00
6413;BME280;3239;48.714;9.472;2023-02-13T11:08:26;100124.44;;;10.55;100.00
6413;BME280;3239;48.714;9.472;2023-02-13T11:10:53;100115.19;;;10.53;100.00
6413;BME280;3239;48.714;9.472;2023-02-13T11:13:25;100120.09;;;11.43;100.00
6413;BME280;3239;48.714;9.472;2023-02-13T11:16:03;100115.13;;;12.24;100.00
6413;BME280;3239;48.714;9.472;2023-02-13T11:18:35;100111.56;;;12.18;100.00
6413;BME280;3239;48.714;9.472;2023-02-13T11:23:41;100114.88;;;11.45;100.00
6413;BME280;3239;48.714;9.472;2023-02-13T11:26:20;100115.56;;;12.53;100.00
6413;BME280;3239;48.714;9.472;2023-02-13T11:28:57;100117.53;;;11.60;100.00
6413;BME280;3239;48.714;9.472;2023-02-13T11:31:32;100100.44;;;11.70;100.00
6413;BME280;3239;48.714;9.472;2023-02-13T11:34:22;100107.19;;;11.29;100.00
6413;BME280;3239;48.714;9.472;2023-02-13T11:36:53;100100.44;;;11.05;100.00
6413;BME280;3239;48.714;9.472;2023-02-13T11:39:25;100100.97;;;11.74;100.00
6413;BME280;3239;48.714;9.472;2023-02-13T11:41:51;100108.13;;;12.23;100.00
6413;BME280;3239;48.714;9.472;2023-02-13T11:44:30;100096.50;;;13.39;97.09
6413;BME280;3239;48.714;9.472;2023-02-13T11:47:00;100106.59;;;13.00;92.76
6413;BME280;3239;48.714;9.472;2023-02-13T11:49:30;100110.41;;;13.14;97.24
6413;BME280;3239;48.714;9.472;2023-02-13T11:52:27;100105.84;;;13.97;77.31
6413;BME280;3239;48.714;9.472;2023-02-13T11:55:23;100106.44;;;13.15;80.52
6413;BME280;3239;48.714;9.472;2023-02-13T11:58:25;100109.47;;;13.22;87.25
6413;BME280;3239;48.714;9.472;2023-02-13T12:03:34;100096.09;;;14.01;73.11
6413;BME280;3239;48.714;9.472;2023-02-13T12:08:39;100091.06;;;12.50;86.56
6413;BME280;3239;48.714;9.472;2023-02-13T12:11:50;100097.63;;;13.05;89.98
6413;BME280;3239;48.714;9.472;2023-02-13T12:14:22;100098.16;;;12.67;92.53
6413;BME280;3239;48.714;9.472;2023-02-13T12:17:01;100095.53;;;12.89;96.56
6413;BME280;3239;48.714;9.472;2023-02-13T12:19:48;100095.31;;;13.73;79.98
6413;BME280;3239;48.714;9.472;2023-02-13T12:25:20;100095.34;;;14.45;77.06
6413;BME280;3239;48.714;9.472;2023-02-13T12:28:11;100091.59;;;14.37;77.36
6413;BME280;3239;48.714;9.472;2023-02-13T12:30:59;100081.94;;;14.82;69.44
6413;BME280;3239;48.714;9.472;2023-02-13T12:45:42;100074.34;;;15.10;72.29
6413;BME280;3239;48.714;9.472;2023-02-13T12:48:42;100070.41;;;12.65;83.42
6413;BME280;3239;48.714;9.472;2023-02-13T12:57:50;100068.69;;;14.69;82.10
6413;BME280;3239;48.714;9.472;2023-02-13T13:01:03;100070.00;;;15.20;67.99
6413;BME280;3239;48.714;9.472;2023-02-13T13:03:34;100066.69;;;14.75;63.08
6413;BME280;3239;48.714;9.472;2023-02-13T13:15:39;100060.50;;;13.87;66.51
6413;BME280;3239;48.714;9.472;2023-02-13T13:26:49;100052.47;;;13.67;74.09
6413;BME280;3239;48.714;9.472;2023-02-13T13:32:00;100053.00;;;14.26;70.67
6413;BME280;3239;48.714;9.472;2023-02-13T13:34:27;100051.91;;;16.29;59.02
6413;BME280;3239;48.714;9.472;2023-02-13T13:37:10;100049.28;;;16.13;56.39
6413;BME280;3239;48.714;9.472;2023-02-13T13:51:50;100043.41;;;14.60;62.59
6413;BME280;3239;48.714;9.472;2023-02-13T13:54:20;100045.63;;;14.72;69.45
6413;BME280;3239;48.714;9.472;2023-02-13T14:07:40;100054.75;;;15.08;62.99
6413;BME280;3239;48.714;9.472;2023-02-13T14:21:00;100051.16;;;13.24;88.31
6413;BME280;3239;48.714;9.472;2023-02-13T14:23:46;100040.66;;;14.54;78.79
6413;BME280;3239;48.714;9.472;2023-02-13T14:26:36;100040.06;;;12.96;82.82
6413;BME280;3239;48.714;9.472;2023-02-13T14:29:27;100046.47;;;14.12;78.14
6413;BME280;3239;48.714;9.472;2023-02-13T14:32:17;100053.75;;;13.82;75.59
6413;BME280;3239;48.714;9.472;2023-02-13T14:34:57;100055.03;;;12.90;74.00
6413;BME280;3239;48.714;9.472;2023-02-13T14:37:35;100052.22;;;13.98;81.64
6413;BME280;3239;48.714;9.472;2023-02-13T14:43:00;100057.03;;;12.95;94.93
6413;BME280;3239;48.714;9.472;2023-02-13T14:45:31;100045.19;;;14.52;79.12
6413;BME280;3239;48.714;9.472;2023-02-13T14:48:05;100049.28;;;14.97;72.35
6413;BME280;3239;48.714;9.472;2023-02-13T14:50:45;100050.63;;;12.61;98.43
6413;BME280;3239;48.714;9.472;2023-02-13T14:53:36;100058.75;;;12.87;94.64
6413;BME280;3239;48.714;9.472;2023-02-13T14:56:13;100051.00;;;14.26;83.71
6413;BME280;3239;48.714;9.472;2023-02-13T14:59:04;100043.78;;;12.93;86.63
6413;BME280;3239;48.714;9.472;2023-02-13T15:01:42;100047.16;;;12.66;84.02
6413;BME280;3239;48.714;9.472;2023-02-13T15:04:16;100051.16;;;11.36;100.00
6413;BME280;3239;48.714;9.472;2023-02-13T15:06:45;100050.50;;;11.01;100.00
6413;BME280;3239;48.714;9.472;2023-02-13T15:09:40;100041.94;;;10.93;100.00
6413;BME280;3239;48.714;9.472;2023-02-13T15:14:57;100039.69;;;10.03;100.00
6413;BME280;3239;48.714;9.472;2023-02-13T15:17:34;100040.13;;;10.30;100.00
6413;BME280;3239;48.714;9.472;2023-02-13T15:20:25;100042.69;;;10.94;100.00
6413;BME280;3239;48.714;9.472;2023-02-13T15:22:52;100031.25;;;10.55;100.00
6413;BME280;3239;48.714;9.472;2023-02-13T15:25:39;100036.34;;;11.79;100.00
6413;BME280;3239;48.714;9.472;2023-02-13T15:28:07;100038.03;;;11.25;100.00
6413;BME280;3239;48.714;9.472;2023-02-13T15:30:57;100028.50;;;10.75;100.00
6413;BME280;3239;48.714;9.472;2023-02-13T15:33:48;100033.69;;;10.33;100.00
6413;BME280;3239;48.714;9.472;2023-02-13T15:36:23;100026.97;;;9.71;100.00
6413;BME280;3239;48.714;9.472;2023-02-13T15:38:59;100036.03;;;9.33;100.00
6413;BME280;3239;48.714;9.472;2023-02-13T15:41:36;100037.16;;;9.85;100.00
6413;BME280;3239;48.714;9.472;2023-02-13T15:44:03;100040.84;;;9.67;100.00
6413;BME280;3239;48.714;9.472;2023-02-13T15:46:34;100038.00;;;9.18;100.00
6413;BME280;3239;48.714;9.472;2023-02-13T15:49:13;100033.91;;;8.76;100.00
6413;BME280;3239;48.714;9.472;2023-02-13T15:51:40;100040.81;;;8.86;100.00
6413;BME280;3239;48.714;9.472;2023-02-13T15:54:27;100041.19;;;9.17;100.00
6413;BME280;3239;48.714;9.472;2023-02-13T15:56:57;100040.09;;;8.85;100.00
6413;BME280;3239;48.714;9.472;2023-02-13T15:59:28;100042.56;;;8.98;100.00
6413;BME280;3239;48.714;9.472;2023-02-13T16:01:57;100041.19;;;7.90;100.00
6413;BME280;3239;48.714;9.472;2023-02-13T16:04:25;100048.59;;;6.76;100.00
6413;BME280;3239;48.714;9.472;2023-02-13T16:06:54;100044.81;;;6.07;100.00
6413;BME280;3239;48.714;9.472;2023-02-13T16:09:34;100050.91;;;5.59;100.00
6413;BME280;3239;48.714;9.472;2023-02-13T16:14:59;100061.97;;;5.22;100.00
6413;BME280;3239;48.714;9.472;2023-02-13T16:17:34;100067.28;;;5.04;100.00
6413;BME280;3239;48.714;9.472;2023-02-13T16:22:44;100072.34;;;4.80;100.00
6413;BME280;3239;48.714;9.472;2023-02-13T16:25:37;100075.34;;;4.48;100.00
6413;BME280;3239;48.714;9.472;2023-02-13T16:28:20;100091.75;;;4.45;100.00
6413;BME280;3239;48.714;9.472;2023-02-13T16:33:48;100093.50;;;4.26;100.00
6413;BME280;3239;48.714;9.472;2023-02-13T16:38:43;100106.59;;;3.78;100.00
6413;BME280;3239;48.714;9.472;2023-02-13T16:44:02;100123.72;;;3.75;100.00